Time;durP1;ratioP1;P1;durP2;ratioP2;P2;SDS_P1;SDS_P2;PMS_P1;PMS_P2;Temp;Humidity;BMP_temperature;BMP_pressure;BME280_temperature;BME280_humidity;BME280_pressure;Samples;Min_cycle;Max_cycle;Signal;HPM_P1;HPM_P2
2023/09/01 00:01:31;;;;;;;9.65;5.35;;;;;;;20.23;100.00;100390.97;5088933;28;20051;-79
2023/09/01 00:03:57;;;;;;;9.50;5.80;;;;;;;19.92;100.00;100364.00;5090740;28;20024;-81
2023/09/01 00:06:22;;;;;;;10.45;5.40;;;;;;;19.74;100.00;100355.28;5088931;28;20492;-81
2023/09/01 00:08:48;;;;;;;11.77;6.95;;;;;;;19.77;100.00;100367.50;5089115;28;20032;-80
2023/09/01 00:11:13;;;;;;;8.48;5.75;;;;;;;19.99;100.00;100378.84;5089095;28;20024;-79
2023/09/01 00:13:39;;;;;;;9.25;6.05;;;;;;;19.86;100.00;100300.28;5090139;28;20555;-77
2023/09/01 00:16:05;;;;;;;12.32;6.40;;;;;;;20.52;100.00;100355.84;5089235;28;20023;-77
2023/09/01 00:18:31;;;;;;;10.38;5.68;;;;;;;20.44;100.00;100334.94;5089111;28;20039;-76
2023/09/01 00:21:06;;;;;;;8.60;5.63;;;;;;;20.70;100.00;100394.22;5090434;28;20050;-77
2023/09/01 00:23:32;;;;;;;11.80;6.60;;;;;;;20.46;100.00;100377.75;5090199;28;20028;-75
2023/09/01 00:26:00;;;;;;;11.82;6.20;;;;;;;20.54;100.00;100390.81;5089204;28;20032;-76
2023/09/01 00:28:26;;;;;;;9.68;6.25;;;;;;;20.19;100.00;100390.09;5090929;28;20032;-77
2023/09/01 00:30:59;;;;;;;10.38;6.80;;;;;;;19.94;100.00;100391.06;5093036;28;20089;-76
2023/09/01 00:33:27;;;;;;;14.50;6.90;;;;;;;20.05;100.00;100397.16;5093202;28;20036;-76
2023/09/01 00:35:54;;;;;;;12.48;7.05;;;;;;;19.96;100.00;100390.19;5093103;28;20024;-77
2023/09/01 00:38:20;;;;;;;10.63;6.35;;;;;;;20.01;100.00;100392.78;5094450;28;20035;-81
2023/09/01 00:40:48;;;;;;;9.98;6.28;;;;;;;20.03;100.00;100367.44;5094485;28;20028;-78
2023/09/01 00:43:17;;;;;;;11.15;6.43;;;;;;;20.44;100.00;100418.84;5094399;28;20020;-77
2023/09/01 00:45:43;;;;;;;11.90;6.97;;;;;;;20.44;100.00;100416.22;5094134;28;20020;-78
2023/09/01 00:48:11;;;;;;;11.50;7.00;;;;;;;20.07;100.00;100392.75;5094228;28;20040;-81
2023/09/01 00:50:37;;;;;;;11.25;6.85;;;;;;;20.10;100.00;100411.13;5091503;28;20020;-77
2023/09/01 00:53:05;;;;;;;11.88;7.85;;;;;;;19.97;100.00;100418.13;5072262;28;20087;-77
2023/09/01 00:55:33;;;;;;;9.68;6.78;;;;;;;19.97;100.00;100406.78;5073778;28;20028;-76
2023/09/01 00:57:59;;;;;;;12.40;7.07;;;;;;;20.08;100.00;100417.25;5073289;28;20032;-79
2023/09/01 01:00:25;;;;;;;12.18;6.70;;;;;;;20.11;100.00;100420.72;5073745;28;20070;-77
2023/09/01 01:02:50;;;;;;;10.65;7.20;;;;;;;20.06;100.00;100422.47;5072264;28;20032;-77
2023/09/01 01:05:24;;;;;;;10.30;7.03;;;;;;;20.04;100.00;100405.88;5072231;28;20112;-77
2023/09/01 01:08:15;;;;;;;10.80;7.13;;;;;;;20.13;100.00;100405.00;5073666;28;20032;-75
2023/09/01 01:10:59;;;;;;;10.52;6.50;;;;;;;20.18;100.00;100413.69;5071847;28;20115;-75
2023/09/01 01:13:28;;;;;;;9.02;6.47;;;;;;;20.31;100.00;100425.00;5073413;28;20117;-77
2023/09/01 01:15:57;;;;;;;11.82;6.80;;;;;;;19.91;100.00;100418.13;5073495;28;20035;-81
2023/09/01 01:18:24;;;;;;;9.82;6.93;;;;;;;19.51;100.00;100421.66;5073329;28;20032;-80
2023/09/01 01:20:55;;;;;;;10.85;7.00;;;;;;;19.47;100.00;100435.63;5071733;28;20102;-81
2023/09/01 01:23:22;;;;;;;9.88;6.68;;;;;;;19.02;100.00;100403.34;5071740;28;20078;-81
2023/09/01 01:25:52;;;;;;;10.18;6.85;;;;;;;19.22;100.00;100424.28;5071970;28;20034;-80
2023/09/01 01:28:19;;;;;;;9.07;7.07;;;;;;;19.02;100.00;100417.28;5071812;28;20038;-81
2023/09/01 01:30:47;;;;;;;10.05;6.70;;;;;;;19.13;100.00;100422.53;5071823;28;20041;-80
2023/09/01 01:33:33;;;;;;;12.55;6.80;;;;;;;19.28;100.00;100428.63;5071537;28;20112;-80
2023/09/01 01:36:17;;;;;;;13.57;7.50;;;;;;;19.34;100.00;100405.06;5070467;28;20037;-83
2023/09/01 01:38:48;;;;;;;11.40;6.95;;;;;;;19.48;100.00;100412.94;5069619;28;20047;-77
2023/09/01 01:41:43;;;;;;;11.35;7.65;;;;;;;19.64;100.00;100429.50;5053054;28;20205;-77
2023/09/01 01:44:13;;;;;;;9.88;6.50;;;;;;;19.33;100.00;100375.44;5030047;28;20049;-75
2023/09/01 01:46:40;;;;;;;13.70;7.60;;;;;;;19.66;100.00;100418.16;5030239;28;20051;-76
2023/09/01 01:49:11;;;;;;;11.95;7.13;;;;;;;19.85;100.00;100433.88;4990675;28;20135;-79
2023/09/01 01:51:37;;;;;;;11.38;7.40;;;;;;;19.96;100.00;100436.47;4970955;28;20086;-76
2023/09/01 01:54:03;;;;;;;11.55;7.22;;;;;;;19.93;100.00;100415.53;4985303;28;21135;-80
2023/09/01 01:56:28;;;;;;;9.95;6.18;;;;;;;20.04;100.00;100421.63;4990473;28;20749;-80
2023/09/01 01:58:54;;;;;;;11.27;6.45;;;;;;;20.04;100.00;100393.66;4989562;28;20042;-83
2023/09/01 02:01:19;;;;;;;12.07;6.82;;;;;;;20.38;100.00;100426.72;4981575;28;20088;-80
2023/09/01 02:03:45;;;;;;;16.05;6.15;;;;;;;20.45;100.00;100411.81;4971084;28;20041;-82
2023/09/01 02:06:10;;;;;;;8.65;6.03;;;;;;;20.51;100.00;100410.06;4971194;28;20047;-81
2023/09/01 02:08:37;;;;;;;8.40;6.20;;;;;;;20.33;100.00;100369.06;4987285;28;20764;-85
2023/09/01 02:11:03;;;;;;;13.13;6.93;;;;;;;20.64;100.00;100421.34;4986980;28;20043;-82
2023/09/01 02:13:28;;;;;;;10.30;5.82;;;;;;;20.31;100.00;100369.94;4976792;28;20576;-81
2023/09/01 02:15:54;;;;;;;8.48;5.85;;;;;;;20.75;100.00;100433.56;4967762;28;20039;-81
2023/09/01 02:18:20;;;;;;;9.20;6.07;;;;;;;20.81;100.00;100425.66;4951723;29;20051;-86
2023/09/01 02:20:46;;;;;;;8.38;6.00;;;;;;;20.85;100.00;100422.16;4988042;28;20048;-84
2023/09/01 02:23:16;;;;;;;10.15;5.93;;;;;;;20.89;100.00;100429.13;5024146;28;20056;-81
2023/09/01 02:25:43;;;;;;;10.82;6.68;;;;;;;20.80;100.00;100410.81;5012931;28;20211;-82
2023/09/01 02:28:08;;;;;;;9.85;6.40;;;;;;;20.82;100.00;100424.78;5012945;28;20080;-85
2023/09/01 02:30:34;;;;;;;13.93;6.07;;;;;;;20.73;100.00;100415.22;5012885;28;20061;-83
2023/09/01 02:32:59;;;;;;;10.95;5.78;;;;;;;20.74;100.00;100443.19;5012887;28;20061;-84
2023/09/01 02:35:24;;;;;;;11.75;5.95;;;;;;;20.70;100.00;100438.81;5013146;28;20044;-85
2023/09/01 02:37:50;;;;;;;7.65;5.72;;;;;;;20.55;100.00;100431.03;5029432;28;20489;-85
2023/09/01 02:40:16;;;;;;;10.63;6.30;;;;;;;20.50;100.00;100428.44;5012319;28;20061;-83
2023/09/01 02:42:42;;;;;;;12.10;6.13;;;;;;;20.50;100.00;100445.03;5012568;28;20437;-83
2023/09/01 02:45:12;;;;;;;10.98;6.18;;;;;;;20.47;100.00;100436.31;5012699;28;20034;-85
2023/09/01 02:47:40;;;;;;;10.20;6.40;;;;;;;20.50;100.00;100428.44;5012486;28;20038;-83
2023/09/01 02:50:06;;;;;;;9.73;5.97;;;;;;;20.38;100.00;100418.00;5029406;28;20140;-82
2023/09/01 02:52:32;;;;;;;11.70;6.18;;;;;;;20.40;100.00;100401.38;5011646;28;20406;-88
2023/09/01 02:54:58;;;;;;;10.10;6.20;;;;;;;20.60;100.00;100431.88;5012051;28;20044;-82
2023/09/01 02:57:23;;;;;;;9.20;6.72;;;;;;;20.50;100.00;100405.69;5012463;28;20184;-82
2023/09/01 02:59:50;;;;;;;8.57;5.82;;;;;;;20.60;100.00;100413.50;5012787;28;20779;-83
2023/09/01 03:02:15;;;;;;;9.98;6.47;;;;;;;20.71;100.00;100426.56;5030219;28;20122;-87
2023/09/01 03:04:41;;;;;;;13.48;6.28;;;;;;;20.68;100.00;100424.84;5013606;28;20061;-84
2023/09/01 03:07:07;;;;;;;11.90;6.80;;;;;;;20.74;100.00;100430.09;5030077;28;20037;-83
2023/09/01 03:09:32;;;;;;;12.73;6.65;;;;;;;20.70;100.00;100415.22;5049945;28;20036;-82
2023/09/01 03:11:58;;;;;;;10.07;6.70;;;;;;;20.76;100.00;100419.56;5048219;28;20072;-82
2023/09/01 03:14:24;;;;;;;8.02;6.05;;;;;;;20.63;100.00;100397.75;5047546;28;20033;-83
2023/09/01 03:16:50;;;;;;;12.65;7.13;;;;;;;20.52;100.00;100393.47;5048540;28;20534;-88
2023/09/01 03:19:16;;;;;;;9.82;6.45;;;;;;;20.67;100.00;100412.59;5048501;28;20029;-82
2023/09/01 03:21:41;;;;;;;8.82;6.50;;;;;;;20.71;100.00;100422.25;5048315;28;20037;-84
2023/09/01 03:24:07;;;;;;;11.45;6.88;;;;;;;20.42;100.00;100386.50;5048059;28;20036;-85
2023/09/01 03:26:32;;;;;;;10.93;6.90;;;;;;;20.56;100.00;100423.16;5048326;28;20053;-86
2023/09/01 03:28:58;;;;;;;8.80;6.10;;;;;;;20.45;100.00;100425.84;5048052;28;20120;-81
2023/09/01 03:31:23;;;;;;;12.07;7.40;;;;;;;20.35;100.00;100400.53;5048179;28;20091;-81
2023/09/01 03:33:49;;;;;;;14.73;7.53;;;;;;;20.39;100.00;100414.47;5048360;28;20031;-82
2023/09/01 03:36:14;;;;;;;10.20;7.28;;;;;;;20.29;100.00;100397.94;5048045;28;20468;-81
2023/09/01 03:38:40;;;;;;;11.80;7.43;;;;;;;20.15;100.00;100391.00;5048262;28;20400;-80
2023/09/01 03:41:06;;;;;;;15.65;7.72;;;;;;;20.30;100.00;100421.53;5048035;28;20025;-82
2023/09/01 03:43:33;;;;;;;10.10;7.18;;;;;;;20.14;100.00;100411.97;5055140;28;20156;-81
2023/09/01 03:45:59;;;;;;;11.50;7.30;;;;;;;20.11;100.00;100432.94;5047988;28;20029;-82
2023/09/01 03:48:25;;;;;;;12.50;8.32;;;;;;;20.00;100.00;100430.34;5047983;28;20082;-84
2023/09/01 03:51:10;;;;;;;13.60;8.38;;;;;;;19.93;100.00;100431.25;5032601;28;20549;-82
2023/09/01 03:53:39;;;;;;;10.80;8.27;;;;;;;19.70;100.00;100395.44;5032056;28;20088;-83
2023/09/01 03:56:16;;;;;;;14.18;8.38;;;;;;;19.92;100.00;100427.75;5032691;28;20404;-82
2023/09/01 03:58:42;;;;;;;12.25;8.77;;;;;;;19.86;100.00;100447.00;5050582;28;20087;-84
2023/09/01 04:01:11;;;;;;;12.13;9.05;;;;;;;19.71;100.00;100428.63;5050672;28;20032;-81
2023/09/01 04:03:42;;;;;;;13.85;9.23;;;;;;;19.77;100.00;100446.94;5049309;28;20139;-86
2023/09/01 04:06:08;;;;;;;12.65;9.48;;;;;;;19.75;100.00;100433.00;5030676;28;20032;-86
2023/09/01 04:08:34;;;;;;;15.07;9.82;;;;;;;19.84;100.00;100447.88;5030397;28;20472;-83
2023/09/01 04:11:00;;;;;;;17.48;9.38;;;;;;;19.68;100.00;100441.72;5030301;28;20098;-82
2023/09/01 04:13:25;;;;;;;11.75;9.55;;;;;;;19.39;100.00;100404.22;5030191;28;20515;-85
2023/09/01 04:15:51;;;;;;;14.93;9.25;;;;;;;19.19;100.00;100399.00;5030753;28;20029;-82
2023/09/01 04:18:17;;;;;;;11.90;9.40;;;;;;;19.30;100.00;100434.75;5031541;28;20103;-83
2023/09/01 04:20:47;;;;;;;10.55;9.13;;;;;;;19.37;100.00;100462.69;5031995;28;20031;-83
2023/09/01 04:23:14;;;;;;;13.10;9.20;;;;;;;19.22;100.00;100447.84;5065979;28;20041;-81
2023/09/01 04:25:39;;;;;;;14.15;10.45;;;;;;;19.29;100.00;100449.59;5064343;28;20048;-82
2023/09/01 04:28:04;;;;;;;12.02;10.27;;;;;;;19.17;100.00;100444.34;5052266;28;20045;-84
2023/09/01 04:30:30;;;;;;;15.48;10.48;;;;;;;18.80;100.00;100392.78;5058155;28;20037;-82
2023/09/01 04:32:56;;;;;;;13.32;10.00;;;;;;;19.15;100.00;100464.41;5035333;28;20100;-83
2023/09/01 04:35:21;;;;;;;14.48;10.68;;;;;;;19.18;100.00;100467.91;5043757;28;20032;-82
2023/09/01 04:37:47;;;;;;;15.63;11.10;;;;;;;19.14;100.00;100452.19;5053030;28;20028;-82
2023/09/01 04:40:13;;;;;;;13.95;10.15;;;;;;;19.06;100.00;100441.72;5051048;28;20025;-83
2023/09/01 04:42:40;;;;;;;15.82;10.32;;;;;;;18.88;100.00;100405.91;5032127;28;20025;-83
2023/09/01 04:45:06;;;;;;;13.55;11.02;;;;;;;19.29;100.00;100461.78;5031983;28;20040;-84
2023/09/01 04:47:32;;;;;;;16.88;10.82;;;;;;;19.19;100.00;100443.47;5030088;28;20033;-80
2023/09/01 04:49:57;;;;;;;14.82;10.70;;;;;;;19.14;100.00;100424.28;5049394;28;20039;-88
2023/09/01 04:52:23;;;;;;;13.95;10.55;;;;;;;19.31;100.00;100457.44;5032299;28;20416;-81
2023/09/01 04:54:48;;;;;;;14.50;10.10;;;;;;;19.14;100.00;100449.56;5060910;28;20044;-83
2023/09/01 04:57:14;;;;;;;17.20;11.18;;;;;;;19.19;100.00;100437.34;5051989;28;20097;-83
2023/09/01 04:59:39;;;;;;;17.08;10.65;;;;;;;19.51;100.00;100466.16;5051721;28;20031;-83
2023/09/01 05:02:05;;;;;;;14.05;9.27;;;;;;;19.57;100.00;100460.06;5051990;28;20033;-83
2023/09/01 05:04:31;;;;;;;13.68;10.75;;;;;;;19.65;100.00;100465.28;5051946;28;20555;-84
2023/09/01 05:06:57;;;;;;;12.05;9.75;;;;;;;19.59;100.00;100449.59;5051684;28;20156;-83
2023/09/01 05:09:23;;;;;;;16.83;10.52;;;;;;;18.96;100.00;100340.53;5051619;28;20468;-82
2023/09/01 05:11:48;;;;;;;14.68;10.20;;;;;;;19.75;100.00;100477.53;5069802;28;20040;-83
2023/09/01 05:14:13;;;;;;;12.85;10.05;;;;;;;19.72;100.00;100480.13;5070884;28;20028;-83
2023/09/01 05:16:39;;;;;;;13.18;9.52;;;;;;;19.75;100.00;100477.53;5055216;28;20495;-83
2023/09/01 05:19:05;;;;;;;14.35;10.70;;;;;;;19.67;100.00;100461.78;5055515;28;20028;-82
2023/09/01 05:21:31;;;;;;;13.35;10.38;;;;;;;19.78;100.00;100489.75;5073713;28;20101;-82
2023/09/01 05:23:56;;;;;;;11.45;9.68;;;;;;;19.78;100.00;100476.66;5073536;28;20064;-84
2023/09/01 05:26:21;;;;;;;11.75;10.50;;;;;;;19.83;100.00;100480.16;5055657;28;20045;-84
2023/09/01 05:28:47;;;;;;;13.63;10.75;;;;;;;19.26;100.00;100375.44;5073161;28;20393;-84
2023/09/01 05:31:12;;;;;;;13.80;10.00;;;;;;;20.07;100.00;100494.97;5072989;28;20091;-84
2023/09/01 05:33:38;;;;;;;14.48;9.75;;;;;;;20.15;100.00;100495.84;5053933;28;20036;-83
2023/09/01 05:36:03;;;;;;;13.48;8.70;;;;;;;20.29;100.00;100508.06;5053192;28;20128;-84
2023/09/01 05:38:29;;;;;;;12.93;9.40;;;;;;;20.14;100.00;100486.22;5053111;28;20020;-82
2023/09/01 05:40:59;;;;;;;11.77;9.95;;;;;;;20.30;100.00;100494.03;5053684;28;20078;-84
2023/09/01 05:43:25;;;;;;;11.98;9.70;;;;;;;20.47;100.00;100510.63;5053842;28;20492;-85
2023/09/01 05:45:51;;;;;;;13.30;9.00;;;;;;;20.60;100.00;100507.94;5054942;28;20043;-79
2023/09/01 05:48:17;;;;;;;11.40;9.40;;;;;;;20.40;100.00;100459.06;5054841;28;20127;-82
2023/09/01 05:50:43;;;;;;;15.70;9.98;;;;;;;20.31;100.00;100420.66;5054828;28;20440;-83
2023/09/01 05:53:09;;;;;;;13.50;9.40;;;;;;;20.83;100.00;100493.00;5058034;28;20063;-82
2023/09/01 05:55:36;;;;;;;11.80;8.93;;;;;;;20.96;100.00;100501.69;5071269;28;20024;-83
2023/09/01 05:58:02;;;;;;;12.68;9.13;;;;;;;20.90;100.00;100495.59;5069054;28;20028;-81
2023/09/01 06:00:29;;;;;;;16.35;9.85;;;;;;;20.91;100.00;100487.72;5070942;28;20042;-82
2023/09/01 06:02:55;;;;;;;12.30;9.70;;;;;;;21.20;100.00;100504.16;5069296;28;20040;-82
2023/09/01 06:05:40;;;;;;;12.50;9.70;;;;;;;21.43;100.00;100504.00;5067580;28;20037;-81
2023/09/01 06:08:05;;;;;;;12.90;10.40;;;;;;;21.50;100.00;100477.69;5067512;28;20051;-80
2023/09/01 06:10:31;;;;;;;16.10;9.70;;;;;;;21.72;100.00;100505.56;5050593;28;20527;-83
2023/09/01 06:12:57;;;;;;;13.25;9.30;;;;;;;21.86;100.00;100510.69;5051273;28;20558;-89
2023/09/01 06:15:22;;;;;;;13.85;8.38;;;;;;;21.87;100.00;100504.56;5069747;28;20033;-84
2023/09/01 06:17:47;;;;;;;12.27;7.10;;;;;;;21.87;100.00;100502.81;5069564;28;20044;-85
2023/09/01 06:20:13;;;;;;;10.13;6.70;;;;;;;21.91;100.00;100508.91;5053135;28;20032;-85
2023/09/01 06:22:39;;;;;;;23.42;7.43;;;;;;;22.07;99.83;100514.88;5069572;28;20480;-87
2023/09/01 06:25:04;;;;;;;18.45;7.00;;;;;;;22.24;99.69;100512.09;5068996;28;20020;-81
2023/09/01 06:27:30;;;;;;;12.60;6.07;;;;;;;22.37;98.88;100524.25;5069235;28;20531;-77
2023/09/01 06:29:56;;;;;;;10.18;5.35;;;;;;;22.29;97.25;100511.16;5069275;28;20067;-85
2023/09/01 06:32:25;;;;;;;7.55;4.93;;;;;;;22.26;96.30;100513.81;5069858;28;20032;-83
2023/09/01 06:34:52;;;;;;;9.23;5.67;;;;;;;22.31;95.31;100534.81;5069468;28;20033;-85
2023/09/01 06:37:18;;;;;;;7.50;5.07;;;;;;;22.28;94.45;100524.31;5050715;28;20098;-83
2023/09/01 06:39:44;;;;;;;10.35;5.10;;;;;;;22.31;94.86;100521.66;5068624;28;20885;-85
2023/09/01 06:42:09;;;;;;;10.32;5.57;;;;;;;22.51;95.00;100544.28;5071190;28;20025;-82
2023/09/01 06:44:35;;;;;;;11.20;5.13;;;;;;;22.48;95.91;100532.03;5071747;28;20147;-85
2023/09/01 06:47:00;;;;;;;12.15;5.63;;;;;;;22.62;96.15;100531.88;5089817;28;20025;-82
2023/09/01 06:49:26;;;;;;;8.15;5.20;;;;;;;22.69;93.52;100522.13;5026167;28;20492;-84
2023/09/01 06:51:52;;;;;;;9.50;5.45;;;;;;;22.82;97.60;100531.63;5009075;28;21267;-86
2023/09/01 06:54:17;;;;;;;8.80;5.38;;;;;;;22.88;94.08;100533.28;5027636;28;20055;-83
2023/09/01 06:56:45;;;;;;;9.00;5.13;;;;;;;22.81;91.18;100507.97;5026819;28;20105;-84
2023/09/01 06:59:11;;;;;;;8.07;4.68;;;;;;;23.02;91.11;100530.50;5028726;28;20059;-84
2023/09/01 07:01:36;;;;;;;9.18;5.38;;;;;;;23.18;91.42;100544.31;5012291;28;20512;-84
2023/09/01 07:04:04;;;;;;;9.13;4.90;;;;;;;23.22;91.19;100532.88;5029164;28;20168;-82
2023/09/01 07:06:31;;;;;;;6.88;4.38;;;;;;;23.47;86.30;100546.53;5012140;28;20524;-83
2023/09/01 07:08:56;;;;;;;8.57;4.38;;;;;;;23.54;88.52;100545.56;4995000;28;20091;-80
2023/09/01 07:11:22;;;;;;;7.65;4.40;;;;;;;23.51;88.43;100540.31;5011190;28;20033;-83
2023/09/01 07:13:47;;;;;;;7.03;4.22;;;;;;;23.56;86.40;100551.69;5028041;28;20045;-79
2023/09/01 07:16:13;;;;;;;7.35;4.28;;;;;;;23.70;86.18;100559.38;5011032;28;20091;-82
2023/09/01 07:18:39;;;;;;;6.20;4.10;;;;;;;23.71;84.16;100549.69;5011415;28;20060;-80
2023/09/01 07:21:05;;;;;;;7.32;4.05;;;;;;;23.75;84.11;100549.63;5026641;28;20040;-85
2023/09/01 07:23:31;;;;;;;12.15;4.75;;;;;;;24.03;83.03;100551.81;5010204;28;20123;-81
2023/09/01 07:25:58;;;;;;;11.02;4.68;;;;;;;24.02;81.58;100563.25;5032802;28;20136;-79
2023/09/01 07:28:24;;;;;;;6.88;4.10;;;;;;;24.05;79.48;100563.22;5090785;28;20055;-82
2023/09/01 07:30:50;;;;;;;8.13;4.30;;;;;;;24.16;77.47;100564.78;5061790;28;20067;-79
2023/09/01 07:33:21;;;;;;;6.65;3.70;;;;;;;24.22;77.20;100554.13;5073004;28;20522;-77
2023/09/01 07:35:49;;;;;;;8.70;3.88;;;;;;;24.37;77.68;100542.41;5056295;28;20131;-80
2023/09/01 07:38:16;;;;;;;6.13;3.42;;;;;;;24.56;75.88;100566.66;5062871;28;20078;-81
2023/09/01 07:40:42;;;;;;;6.35;3.42;;;;;;;24.64;74.83;100569.19;5068131;28;20131;-80
2023/09/01 07:43:08;;;;;;;6.38;3.72;;;;;;;24.62;75.69;100569.19;5027714;28;20103;-79
2023/09/01 07:45:34;;;;;;;5.35;3.50;;;;;;;24.60;73.03;100562.19;5025911;28;20045;-77
2023/09/01 07:48:00;;;;;;;6.32;3.75;;;;;;;24.67;74.92;100551.53;5024941;28;20095;-79
2023/09/01 07:50:30;;;;;;;6.53;3.53;;;;;;;24.79;75.95;100563.59;5027613;28;20543;-78
2023/09/01 07:52:57;;;;;;;6.75;3.22;;;;;;;24.93;73.14;100567.75;5027333;28;20136;-78
2023/09/01 07:55:23;;;;;;;6.40;3.80;;;;;;;25.02;74.88;100536.72;5027915;28;20492;-79
2023/09/01 07:57:48;;;;;;;7.45;3.72;;;;;;;24.17;69.80;100373.97;5010513;28;20033;-83
2023/09/01 08:00:13;;;;;;;5.32;3.33;;;;;;;25.29;71.97;100568.69;5028439;28;20029;-79
2023/09/01 08:02:40;;;;;;;8.85;3.65;;;;;;;24.58;70.00;100448.75;5022605;28;20048;-80
2023/09/01 08:05:05;;;;;;;6.00;3.42;;;;;;;25.27;66.15;100552.03;5009418;28;20496;-76
2023/09/01 08:07:31;;;;;;;7.88;3.72;;;;;;;25.27;69.16;100538.81;5026715;28;20099;-81
2023/09/01 08:10:00;;;;;;;8.40;3.50;;;;;;;25.42;71.24;100553.47;5027523;28;20491;-83
2023/09/01 08:12:28;;;;;;;5.95;3.58;;;;;;;25.48;69.55;100545.41;5027368;28;20120;-79
2023/09/01 08:14:55;;;;;;;4.50;3.05;;;;;;;25.53;64.58;100537.34;5042851;28;20159;-80
2023/09/01 08:17:21;;;;;;;5.15;3.05;;;;;;;25.61;68.35;100539.78;5067679;28;20411;-82
2023/09/01 08:19:47;;;;;;;6.80;3.80;;;;;;;25.62;69.12;100523.03;5025611;28;20045;-81
2023/09/01 08:22:14;;;;;;;5.57;3.40;;;;;;;25.71;68.25;100520.16;5027419;28;20050;-81
2023/09/01 08:24:39;;;;;;;6.70;3.30;;;;;;;25.90;64.46;100517.91;5009898;28;20488;-74
2023/09/01 08:27:05;;;;;;;6.43;3.50;;;;;;;25.86;63.90;100532.13;5044560;28;20049;-78
2023/09/01 08:29:31;;;;;;;9.15;3.47;;;;;;;25.83;65.19;100522.50;5047116;28;20028;-75
2023/09/01 08:31:56;;;;;;;7.10;3.55;;;;;;;25.92;65.50;100516.09;5038037;28;20033;-73
2023/09/01 08:34:22;;;;;;;4.50;3.00;;;;;;;26.22;63.45;100540.06;5046518;28;20437;-74
2023/09/01 08:36:49;;;;;;;6.47;3.50;;;;;;;26.15;62.85;100517.31;5030475;28;20025;-77
2023/09/01 08:39:15;;;;;;;6.57;3.70;;;;;;;26.30;64.73;100522.16;5047487;28;20044;-76
2023/09/01 08:41:43;;;;;;;6.78;4.05;;;;;;;26.43;66.72;100522.72;5047961;28;20041;-78
2023/09/01 08:44:11;;;;;;;6.35;3.67;;;;;;;26.66;70.87;100533.56;4987638;28;20042;-79
2023/09/01 08:46:37;;;;;;;6.22;3.70;;;;;;;26.40;61.64;100503.41;4979818;28;20219;-82
2023/09/01 08:49:04;;;;;;;5.40;3.60;;;;;;;26.66;64.34;100530.91;4988528;28;20076;-80
2023/09/01 08:51:31;;;;;;;6.68;3.90;;;;;;;26.70;61.55;100527.25;4963684;28;20501;-86
2023/09/01 08:53:57;;;;;;;12.32;3.65;;;;;;;26.83;61.62;100520.72;4976128;28;20137;-86
2023/09/01 08:56:23;;;;;;;5.82;3.58;;;;;;;26.80;64.98;100521.69;4998536;28;20053;-87
2023/09/01 08:58:49;;;;;;;5.22;3.70;;;;;;;27.03;66.11;100527.16;5016290;28;20069;-84
2023/09/01 09:01:18;;;;;;;6.18;3.90;;;;;;;26.93;62.14;100505.38;5020999;28;20077;-89
2023/09/01 09:03:43;;;;;;;6.93;3.37;;;;;;;27.02;63.74;100509.56;5017205;28;20049;-85
2023/09/01 09:06:13;;;;;;;6.30;3.30;;;;;;;27.35;64.28;100523.50;5012736;28;20417;-88
2023/09/01 09:08:41;;;;;;;5.88;3.40;;;;;;;27.43;63.76;100508.25;5032973;28;20021;-82
2023/09/01 09:11:14;;;;;;;6.30;3.33;;;;;;;27.65;60.22;100514.63;5032331;28;20111;-88
2023/09/01 09:13:40;;;;;;;12.63;3.72;;;;;;;27.71;59.02;100519.75;5015023;28;20033;-83
2023/09/01 09:16:15;;;;;;;5.38;3.17;;;;;;;27.75;57.52;100497.47;5031179;28;20045;-87
2023/09/01 09:18:46;;;;;;;6.82;2.35;;;;;;;27.96;53.97;100508.28;5050907;28;20075;-83
2023/09/01 09:21:32;;;;;;;3.30;2.42;;;;;;;27.97;56.43;100520.63;5011135;28;20041;-77
2023/09/01 09:24:00;;;;;;;3.45;2.67;;;;;;;27.85;55.72;100493.63;5012590;28;20421;-80
2023/09/01 09:26:27;;;;;;;44.00;37.47;;;;;;;27.84;60.32;100506.91;5025892;28;20030;-81
2023/09/01 09:28:53;;;;;;;5.25;3.30;;;;;;;27.76;58.37;100500.09;5046317;28;20037;-79
2023/09/01 09:31:33;;;;;;;4.03;2.72;;;;;;;27.81;59.66;100489.31;5024398;28;20098;-79
2023/09/01 09:34:15;;;;;;;5.97;2.92;;;;;;;28.05;56.36;100516.84;5015758;28;20049;-78
2023/09/01 09:36:40;;;;;;;4.32;3.00;;;;;;;28.10;59.65;100503.38;5031190;28;20036;-72
2023/09/01 09:39:19;;;;;;;5.60;3.40;;;;;;;28.33;56.35;100515.81;5015615;28;20030;-79
2023/09/01 09:41:48;;;;;;;4.38;3.20;;;;;;;28.29;57.08;100511.56;5030922;28;20033;-78
2023/09/01 09:44:33;;;;;;;8.05;3.30;;;;;;;28.30;56.45;100475.25;5030627;28;20526;-86
2023/09/01 09:47:01;;;;;;;5.47;2.60;;;;;;;28.57;53.35;100482.19;5013502;28;20401;-79
2023/09/01 09:49:30;;;;;;;4.65;2.92;;;;;;;28.73;54.31;100497.56;5011327;28;20045;-76
2023/09/01 09:51:59;;;;;;;4.57;2.60;;;;;;;28.69;53.15;100477.38;5028454;28;20106;-80
2023/09/01 09:54:29;;;;;;;7.07;3.40;;;;;;;28.91;53.58;100473.88;5072531;28;20052;-86
2023/09/01 09:56:56;;;;;;;;;;;;;;;29.00;52.71;100487.66;5075169;28;20040;-84
2023/09/01 09:59:45;;;;;;;3.80;2.60;;;;;;;29.13;51.29;100465.91;5092489;28;19931;-80
2023/09/01 10:02:36;;;;;;;4.30;2.70;;;;;;;29.38;49.83;100487.06;5071388;28;20112;-78
2023/09/01 10:05:04;;;;;;;2.58;1.80;;;;;;;29.51;51.07;100487.44;5074044;28;20044;-79
2023/09/01 10:07:32;;;;;;;4.78;2.75;;;;;;;29.57;51.79;100470.31;5073974;28;20088;-83
2023/09/01 10:09:59;;;;;;;4.15;2.50;;;;;;;29.37;48.77;100427.69;5073948;28;20475;-87
2023/09/01 10:12:27;;;;;;;3.63;2.58;;;;;;;29.72;51.69;100448.41;5073937;28;20032;-84
2023/09/01 10:14:54;;;;;;;4.10;2.17;;;;;;;29.70;49.28;100467.06;5073538;28;20020;-81
2023/09/01 10:17:21;;;;;;;3.25;2.40;;;;;;;29.72;45.87;100467.03;5092084;28;20438;-78
2023/09/01 10:19:48;;;;;;;3.20;2.28;;;;;;;29.66;47.90;100438.03;5048746;28;20045;-78
2023/09/01 10:22:17;;;;;;;4.25;2.30;;;;;;;29.75;45.18;100463.38;5032733;28;20451;-79
2023/09/01 10:25:22;;;;;;;4.50;2.10;;;;;;;29.86;41.11;100466.44;5048779;28;20037;-87
2023/09/01 10:28:05;;;;;;;4.78;2.20;;;;;;;30.00;42.05;100450.72;5031864;28;20045;-85
2023/09/01 10:30:40;;;;;;;2.95;2.30;;;;;;;30.40;44.79;100461.38;5049162;28;20025;-86
2023/09/01 10:33:10;;;;;;;3.08;1.90;;;;;;;30.44;43.29;100435.44;4989020;28;20050;-82
2023/09/01 10:35:37;;;;;;;;;;;;;;;30.52;44.59;100467.09;4974057;28;20042;-82
2023/09/01 10:38:11;;;;;;;3.00;2.33;;;;;;;30.66;40.70;100462.00;4990021;28;19925;-87
2023/09/01 10:40:43;;;;;;;3.83;2.10;;;;;;;30.65;40.95;100462.91;4980754;28;20041;-82
2023/09/01 10:43:10;;;;;;;3.55;2.10;;;;;;;30.70;40.24;100446.72;4983564;28;20035;-79
2023/09/01 10:45:36;;;;;;;3.40;1.80;;;;;;;30.50;39.33;100453.84;4969711;28;20081;-81
2023/09/01 10:48:04;;;;;;;4.00;2.15;;;;;;;30.46;39.57;100438.91;4980006;28;20046;-88
2023/09/01 10:50:33;;;;;;;3.47;2.10;;;;;;;30.56;42.02;100450.91;5003906;28;20040;-85
2023/09/01 10:53:29;;;;;;;45.67;29.90;;;;;;;30.12;42.99;100390.75;4987768;28;20457;-78
2023/09/01 10:56:15;;;;;;;4.97;2.22;;;;;;;30.88;42.47;100460.94;4986148;28;20080;-78
2023/09/01 10:58:52;;;;;;;61.70;38.58;;;;;;;31.04;45.23;100453.97;4979897;28;20042;-84
2023/09/01 11:01:31;;;;;;;7.07;3.03;;;;;;;31.20;46.71;100450.56;4982104;28;20125;-86
2023/09/01 11:04:15;;;;;;;3.15;2.50;;;;;;;31.34;45.37;100455.19;4967524;28;20038;-80
2023/09/01 11:06:56;;;;;;;48.03;24.38;;;;;;;31.61;48.21;100455.59;4987998;28;20505;-85
2023/09/01 11:09:23;;;;;;;5.43;3.53;;;;;;;31.71;46.20;100445.34;4970380;28;20413;-79
2023/09/01 11:11:51;;;;;;;6.07;3.40;;;;;;;31.78;45.64;100438.75;4971326;28;20096;-85
2023/09/01 11:14:21;;;;;;;4.03;2.63;;;;;;;31.82;45.24;100431.44;4969187;28;20043;-79
2023/09/01 11:16:47;;;;;;;3.97;2.13;;;;;;;31.53;38.90;100449.78;4960857;28;20038;-82
2023/09/01 11:19:15;;;;;;;3.00;2.03;;;;;;;31.45;37.95;100450.16;4987837;28;20045;-83
2023/09/01 11:21:42;;;;;;;3.40;2.00;;;;;;;31.39;41.46;100440.69;5008467;28;20046;-84